Time,TemperatureF,DewpointF,PressureIn,WindDirection,WindDirectionDegrees,WindSpeedMPH,WindSpeedGustMPH,Humidity,HourlyPrecipIn,Conditions,Clouds,dailyrainin,SolarRadiationWatts/m^2,SoftwareType,DateUTC
2013-02-07 00:23:00,40.6,38.0,30.07,ESE,107,0.0,1.0,90,0.00,,,0.00,0,weatherlink.com 1.10,2013-02-07 08:23:00,
2013-02-07 00:38:00,40.2,38.0,30.07,ESE,107,0.0,2.0,90,0.00,,,0.00,0,weatherlink.com 1.10,2013-02-07 08:38:00,
2013-02-07 00:53:00,39.9,38.0,30.06,ESE,107,0.0,1.0,91,0.00,,,0.00,0,weatherlink.com 1.10,2013-02-07 08:53:00,
2013-02-07 01:08:00,39.7,37.0,30.06,ESE,107,1.0,1.0,91,0.00,,,0.00,0,weatherlink.com 1.10,2013-02-07 09:08:00,
2013-02-07 01:23:00,39.4,37.0,30.05,ESE,107,0.0,2.0,91,0.00,,,0.00,0,weatherlink.com 1.10,2013-02-07 09:23:00,
2013-02-07 01:38:00,39.3,37.0,30.05,ESE,107,0.0,1.0,91,0.00,,,0.00,0,weatherlink.com 1.10,2013-02-07 09:38:00,
2013-02-07 01:53:00,39.3,37.0,30.05,ESE,107,1.0,2.0,92,0.00,,,0.00,0,weatherlink.com 1.10,2013-02-07 09:53:00,
2013-02-07 02:08:00,39.1,37.0,30.05,ESE,111,1.0,2.0,91,0.00,,,0.00,0,weatherlink.com 1.10,2013-02-07 10:08:00,
2013-02-07 02:23:00,39.0,37.0,30.05,ESE,110,2.0,2.0,91,0.00,,,0.00,0,weatherlink.com 1.10,2013-02-07 10:23:00,
2013-02-07 02:38:00,38.9,37.0,30.04,ESE,120,2.0,3.0,91,0.00,,,0.00,0,weatherlink.com 1.10,2013-02-07 10:38:00,
2013-02-07 02:53:00,38.8,36.0,30.05,ESE,120,0.0,2.0,91,0.00,,,0.00,0,weatherlink.com 1.10,2013-02-07 10:53:00,
2013-02-07 03:08:00,38.6,36.0,30.05,ESE,120,1.0,2.0,91,0.00,,,0.00,0,weatherlink.com 1.10,2013-02-07 11:08:00,
2013-02-07 03:23:00,38.6,36.0,30.04,ESE,120,1.0,2.0,91,0.00,,,0.00,0,weatherlink.com 1.10,2013-02-07 11:23:00,
2013-02-07 03:38:00,38.9,37.0,30.04,ESE,117,2.0,2.0,92,0.00,,,0.00,0,weatherlink.com 1.10,2013-02-07 11:38:00,
2013-02-07 03:53:00,39.2,37.0,30.04,ESE,117,0.0,2.0,92,0.00,,,0.00,0,weatherlink.com 1.10,2013-02-07 11:53:00,
2013-02-07 04:09:00,39.5,37.0,30.04,ESE,117,1.0,2.0,92,0.00,,,0.00,0,weatherlink.com 1.10,2013-02-07 12:09:00,
2013-02-07 04:23:00,39.8,37.0,30.04,ESE,119,1.0,3.0,91,0.00,,,0.00,0,weatherlink.com 1.10,2013-02-07 12:23:00,
2013-02-07 04:39:00,40.0,38.0,30.04,SE,124,0.0,3.0,91,0.00,,,0.00,0,weatherlink.com 1.10,2013-02-07 12:39:00,
2013-02-07 04:53:00,40.0,38.0,30.03,SE,128,2.0,3.0,91,0.00,,,0.00,0,weatherlink.com 1.10,2013-02-07 12:53:00,
2013-02-07 05:08:00,40.1,38.0,30.03,SE,128,1.0,3.0,91,0.00,,,0.00,0,weatherlink.com 1.10,2013-02-07 13:08:00,
2013-02-07 05:23:00,40.1,38.0,30.03,SE,128,1.0,2.0,90,0.00,,,0.00,0,weatherlink.com 1.10,2013-02-07 13:23:00,
2013-02-07 05:38:00,40.0,37.0,30.03,SE,128,0.0,2.0,90,0.00,,,0.00,0,weatherlink.com 1.10,2013-02-07 13:38:00,
2013-02-07 05:53:00,39.8,37.0,30.03,SE,128,0.0,2.0,90,0.00,,,0.00,0,weatherlink.com 1.10,2013-02-07 13:53:00,
2013-02-07 06:08:00,39.8,37.0,30.03,SE,128,0.0,1.0,90,0.00,,,0.00,0,weatherlink.com 1.10,2013-02-07 14:08:00,
2013-02-07 06:23:00,39.7,37.0,30.04,SE,128,0.0,0.0,90,0.00,,,0.00,0,weatherlink.com 1.10,2013-02-07 14:23:00,
2013-02-07 06:38:00,39.9,37.0,30.03,SE,128,0.0,1.0,90,0.00,,,0.00,0,weatherlink.com 1.10,2013-02-07 14:38:00,
2013-02-07 06:54:00,39.8,37.0,30.03,SE,128,0.0,0.0,90,0.00,,,0.00,0,weatherlink.com 1.10,2013-02-07 14:54:00,
2013-02-07 07:09:00,39.2,37.0,30.04,SE,128,0.0,0.0,90,0.00,,,0.00,7,weatherlink.com 1.10,2013-02-07 15:09:00,
2013-02-07 07:24:00,38.8,36.0,30.04,SE,128,0.0,0.0,91,0.00,,,0.00,14,weatherlink.com 1.10,2013-02-07 15:24:00,
2013-02-07 07:39:00,38.9,37.0,30.04,SE,128,0.0,0.0,91,0.00,,,0.00,23,weatherlink.com 1.10,2013-02-07 15:39:00,
2013-02-07 07:54:00,39.5,37.0,30.04,SE,128,0.0,1.0,92,0.00,,,0.00,26,weatherlink.com 1.10,2013-02-07 15:54:00,
2013-02-07 08:09:00,40.4,38.0,30.04,ESE,107,2.0,2.0,91,0.00,,,0.00,67,weatherlink.com 1.10,2013-02-07 16:09:00,
2013-02-07 08:24:00,41.4,39.0,30.04,ESE,123,2.0,3.0,90,0.00,,,0.00,79,weatherlink.com 1.10,2013-02-07 16:24:00,
2013-02-07 08:39:00,42.7,40.0,30.04,SE,129,1.0,4.0,89,0.00,,,0.00,62,weatherlink.com 1.10,2013-02-07 16:39:00,
2013-02-07 08:54:00,44.6,41.0,30.04,SE,126,1.0,2.0,87,0.00,,,0.00,172,weatherlink.com 1.10,2013-02-07 16:54:00,
2013-02-07 09:09:00,46.1,42.0,30.04,SE,126,1.0,2.0,84,0.00,,,0.00,265,weatherlink.com 1.10,2013-02-07 17:09:00,
2013-02-07 09:24:00,47.3,42.0,30.04,ESE,115,0.0,3.0,83,0.00,,,0.00,232,weatherlink.com 1.10,2013-02-07 17:24:00,
2013-02-07 09:39:00,48.7,42.0,30.04,SE,138,1.0,3.0,79,0.00,,,0.00,355,weatherlink.com 1.10,2013-02-07 17:39:00,
2013-02-07 09:55:00,49.8,43.0,30.04,ESE,122,0.0,3.0,76,0.00,,,0.00,396,weatherlink.com 1.10,2013-02-07 17:55:00,
2013-02-07 10:09:00,50.9,43.0,30.04,ESE,117,1.0,2.0,74,0.00,,,0.00,462,weatherlink.com 1.10,2013-02-07 18:09:00,
2013-02-07 10:24:00,51.8,42.0,30.03,NE,44,0.0,5.0,70,0.00,,,0.00,508,weatherlink.com 1.10,2013-02-07 18:24:00,
2013-02-07 10:40:00,53.3,42.0,30.03,ESE,110,1.0,2.0,66,0.00,,,0.00,591,weatherlink.com 1.10,2013-02-07 18:40:00,
2013-02-07 10:54:00,53.3,42.0,30.03,SW,233,0.0,3.0,65,0.00,,,0.00,591,weatherlink.com 1.10,2013-02-07 18:54:00,
2013-02-07 11:10:00,54.2,41.0,30.02,WNW,285,0.0,5.0,61,0.00,,,0.00,371,weatherlink.com 1.10,2013-02-07 19:10:00,
2013-02-07 11:25:00,54.2,41.0,30.02,WSW,245,2.0,3.0,62,0.00,,,0.00,237,weatherlink.com 1.10,2013-02-07 19:25:00,
2013-02-07 11:40:00,55.0,42.0,30.01,West,267,6.0,6.0,61,0.00,,,0.00,338,weatherlink.com 1.10,2013-02-07 19:40:00,
2013-02-07 11:54:00,54.1,41.0,30.01,WSW,247,6.0,9.0,62,0.00,,,0.00,276,weatherlink.com 1.10,2013-02-07 19:54:00,
2013-02-07 12:09:00,54.3,42.0,30.00,WNW,298,4.0,9.0,63,0.00,,,0.00,287,weatherlink.com 1.10,2013-02-07 20:09:00,
2013-02-07 12:25:00,54.6,42.0,29.99,WNW,286,4.0,9.0,63,0.00,,,0.00,207,weatherlink.com 1.10,2013-02-07 20:25:00,
2013-02-07 12:40:00,54.6,42.0,29.98,WSW,239,8.0,9.0,63,0.00,,,0.00,234,weatherlink.com 1.10,2013-02-07 20:40:00,
2013-02-07 12:55:00,54.9,43.0,29.98,West,277,4.0,8.0,64,0.00,,,0.00,171,weatherlink.com 1.10,2013-02-07 20:55:00,
2013-02-07 13:10:00,54.4,44.0,29.97,SW,226,9.0,12.0,68,0.00,,,0.00,336,weatherlink.com 1.10,2013-02-07 21:10:00,
2013-02-07 13:25:00,54.3,45.0,29.97,SW,221,6.0,11.0,71,0.00,,,0.00,311,weatherlink.com 1.10,2013-02-07 21:25:00,
2013-02-07 13:40:00,53.5,45.0,29.96,WNW,290,8.0,13.0,74,0.00,,,0.00,146,weatherlink.com 1.10,2013-02-07 21:40:00,
2013-02-07 13:55:00,51.8,45.0,29.97,NW,315,12.0,14.0,78,0.00,,,0.00,60,weatherlink.com 1.10,2013-02-07 21:55:00,
2013-02-07 14:10:00,50.1,45.0,29.97,West,269,4.0,11.0,82,0.00,,,0.00,160,weatherlink.com 1.10,2013-02-07 22:10:00,
2013-02-07 14:25:00,49.3,45.0,29.97,WNW,284,3.0,14.0,84,0.00,,,0.00,174,weatherlink.com 1.10,2013-02-07 22:25:00,
2013-02-07 14:40:00,50.1,45.0,29.96,WNW,290,7.0,9.0,82,0.00,,,0.00,207,weatherlink.com 1.10,2013-02-07 22:40:00,
2013-02-07 14:55:00,51.3,45.0,29.96,WNW,303,6.0,9.0,78,0.00,,,0.00,192,weatherlink.com 1.10,2013-02-07 22:55:00,
2013-02-07 15:10:00,52.8,45.0,29.95,WSW,250,3.0,8.0,76,0.00,,,0.00,404,weatherlink.com 1.10,2013-02-07 23:10:00,
2013-02-07 15:25:00,53.5,45.0,29.95,West,259,1.0,6.0,74,0.00,,,0.00,352,weatherlink.com 1.10,2013-02-07 23:25:00,
2013-02-07 15:40:00,53.3,45.0,29.95,WNW,286,3.0,6.0,74,0.00,,,0.00,54,weatherlink.com 1.10,2013-02-07 23:40:00,
2013-02-07 15:55:00,54.0,45.0,29.94,SW,219,4.0,6.0,72,0.00,,,0.00,288,weatherlink.com 1.10,2013-02-07 23:55:00,
2013-02-07 16:10:00,54.1,41.0,29.94,WSW,244,5.0,14.0,62,0.00,,,0.00,227,weatherlink.com 1.10,2013-02-08 00:10:00,
2013-02-07 16:25:00,53.6,42.0,29.94,WSW,238,8.0,11.0,66,0.00,,,0.00,169,weatherlink.com 1.10,2013-02-08 00:25:00,
2013-02-07 16:40:00,53.1,42.0,29.94,West,267,10.0,13.0,65,0.00,,,0.00,116,weatherlink.com 1.10,2013-02-08 00:40:00,
2013-02-07 16:55:00,52.1,41.0,29.94,WSW,253,11.0,11.0,67,0.00,,,0.00,67,weatherlink.com 1.10,2013-02-08 00:55:00,
2013-02-07 17:10:00,50.9,42.0,29.94,WSW,248,4.0,13.0,71,0.00,,,0.00,26,weatherlink.com 1.10,2013-02-08 01:10:00,
2013-02-07 17:25:00,50.2,42.0,29.95,WSW,254,7.0,10.0,74,0.00,,,0.00,19,weatherlink.com 1.10,2013-02-08 01:25:00,
2013-02-07 17:40:00,49.5,42.0,29.95,West,277,3.0,9.0,74,0.00,,,0.00,0,weatherlink.com 1.10,2013-02-08 01:40:00,
2013-02-07 17:55:00,48.9,42.0,29.95,WSW,257,1.0,8.0,76,0.00,,,0.00,0,weatherlink.com 1.10,2013-02-08 01:55:00,
2013-02-07 18:10:00,48.6,42.0,29.95,WNW,286,0.0,4.0,77,0.00,,,0.00,0,weatherlink.com 1.10,2013-02-08 02:10:00,
2013-02-07 18:25:00,48.6,41.0,29.94,West,267,0.0,7.0,76,0.00,,,0.00,0,weatherlink.com 1.10,2013-02-08 02:25:00,
2013-02-07 18:40:00,48.4,42.0,29.94,WNW,286,0.0,1.0,77,0.00,,,0.00,0,weatherlink.com 1.10,2013-02-08 02:40:00,
2013-02-07 18:55:00,48.0,41.0,29.94,WNW,286,0.0,0.0,77,0.00,,,0.00,0,weatherlink.com 1.10,2013-02-08 02:55:00,
2013-02-07 19:10:00,47.2,40.0,29.93,South,189,2.0,4.0,76,0.00,,,0.00,0,weatherlink.com 1.10,2013-02-08 03:10:00,
2013-02-07 19:25:00,47.2,39.0,29.93,SW,234,3.0,5.0,73,0.00,,,0.00,0,weatherlink.com 1.10,2013-02-08 03:25:00,
2013-02-07 19:40:00,47.3,39.0,29.93,WSW,247,3.0,9.0,72,0.00,,,0.00,0,weatherlink.com 1.10,2013-02-08 03:40:00,
2013-02-07 19:55:00,47.1,40.0,29.92,West,271,3.0,7.0,75,0.00,,,0.00,0,weatherlink.com 1.10,2013-02-08 03:55:00,
2013-02-07 20:10:00,46.4,39.0,29.92,WSW,256,0.0,4.0,76,0.00,,,0.00,0,weatherlink.com 1.10,2013-02-08 04:10:00,
2013-02-07 20:25:00,46.3,39.0,29.92,WNW,294,0.0,3.0,77,0.00,,,0.00,0,weatherlink.com 1.10,2013-02-08 04:25:00,
2013-02-07 20:40:00,45.6,39.0,29.92,WNW,296,0.0,2.0,79,0.00,,,0.00,0,weatherlink.com 1.10,2013-02-08 04:40:00,
2013-02-07 20:55:00,45.4,40.0,29.92,WNW,297,2.0,2.0,80,0.00,,,0.00,0,weatherlink.com 1.10,2013-02-08 04:55:00,
2013-02-07 21:10:00,44.6,39.0,29.92,WNW,299,0.0,0.0,82,0.00,,,0.00,0,weatherlink.com 1.10,2013-02-08 05:10:00,
2013-02-07 21:25:00,44.0,39.0,29.92,WNW,300,0.0,0.0,83,0.00,,,0.00,0,weatherlink.com 1.10,2013-02-08 05:25:00,
2013-02-07 21:41:00,43.9,39.0,29.91,SW,217,3.0,7.0,83,0.00,,,0.00,0,weatherlink.com 1.10,2013-02-08 05:41:00,
2013-02-07 21:55:00,45.4,40.0,29.91,WNW,288,1.0,6.0,81,0.00,,,0.00,0,weatherlink.com 1.10,2013-02-08 05:55:00,
2013-02-07 22:10:00,44.8,39.0,29.91,WNW,288,0.0,1.0,81,0.00,,,0.00,0,weatherlink.com 1.10,2013-02-08 06:10:00,
2013-02-07 22:25:00,43.7,39.0,29.91,WNW,288,0.0,0.0,82,0.00,,,0.00,0,weatherlink.com 1.10,2013-02-08 06:25:00,
2013-02-07 22:41:00,42.5,38.0,29.91,WNW,288,0.0,0.0,84,0.00,,,0.00,0,weatherlink.com 1.10,2013-02-08 06:41:00,
2013-02-07 22:55:00,42.4,38.0,29.91,WNW,288,0.0,0.0,85,0.00,,,0.00,0,weatherlink.com 1.10,2013-02-08 06:55:00,
2013-02-07 23:11:00,42.9,39.0,29.91,West,264,2.0,3.0,86,0.00,,,0.00,0,weatherlink.com 1.10,2013-02-08 07:11:00,
2013-02-07 23:25:00,43.2,39.0,29.91,SW,232,3.0,7.0,86,0.02,,,0.02,0,weatherlink.com 1.10,2013-02-08 07:25:00,
2013-02-07 23:40:00,43.0,40.0,29.90,WSW,247,0.0,4.0,89,0.05,,,0.05,0,weatherlink.com 1.10,2013-02-08 07:40:00,
2013-02-07 23:55:00,42.8,40.0,29.89,WSW,247,0.0,0.0,91,0.05,,,0.05,0,weatherlink.com 1.10,2013-02-08 07:55:00,